createdAt,value
2022-10-15T00:01:44.809Z,99207.31
2022-10-15T00:04:13.757Z,99201.28
2022-10-15T00:06:41.264Z,99203.88
2022-10-15T00:09:08.797Z,99203.88
2022-10-15T00:11:36.943Z,99204.72
2022-10-15T00:14:04.629Z,99202.97
2022-10-15T00:16:33.517Z,99209.88
2022-10-15T00:19:01.174Z,99209.84
2022-10-15T00:21:30.218Z,99215.84
2022-10-15T00:23:58.246Z,99215.78
2022-10-15T00:26:28.204Z,99210.59
2022-10-15T00:28:57.961Z,99213.19
2022-10-15T00:31:27.145Z,99209.66
2022-10-15T00:33:55.870Z,99205.28
2022-10-15T00:36:25.896Z,99202.66
2022-10-15T00:38:54.883Z,99200.03
2022-10-15T00:41:24.802Z,99200.84
2022-10-15T00:43:56.231Z,99200.84
2022-10-15T00:46:25.940Z,99204.25
2022-10-15T00:48:57.811Z,99210.25
2022-10-15T00:51:40.616Z,99206.78
2022-10-15T00:54:11.160Z,99202.44
2022-10-15T00:56:42.459Z,99209.34
2022-10-15T00:59:12.421Z,99205.88
2022-10-15T01:01:40.235Z,99204.13
2022-10-15T01:04:08.967Z,99207.56
2022-10-15T01:06:37.679Z,99204.09
2022-10-15T01:09:05.745Z,99202.31
2022-10-15T01:11:42.361Z,99208.34
2022-10-15T01:14:29.303Z,99207.44
2022-10-15T01:17:05.755Z,99201.28
2022-10-15T01:19:58.603Z,99202.91
2022-10-15T01:22:39.236Z,99208.97
2022-10-15T01:25:23.571Z,99214.06
2022-10-15T01:27:56.179Z,99209.78
2022-10-15T01:30:27.628Z,99215.84
2022-10-15T01:33:14.807Z,99214.06
2022-10-15T01:35:49.596Z,99211.47
2022-10-15T01:38:34.052Z,99201.91
2022-10-15T01:41:09.753Z,99201.06
2022-10-15T01:43:44.818Z,99195.00
2022-10-15T01:46:58.766Z,99207.06
2022-10-15T01:49:31.182Z,99206.13
2022-10-15T01:52:01.900Z,99202.66
2022-10-15T01:54:31.304Z,99192.31
2022-10-15T01:57:00.446Z,99188.81
2022-10-15T01:59:32.768Z,99188.78
2022-10-15T02:02:01.978Z,99200.09
2022-10-15T02:04:31.657Z,99198.31
2022-10-15T02:07:03.254Z,99193.91
2022-10-15T02:09:40.789Z,99198.22
2022-10-15T02:12:16.515Z,99193.88
2022-10-15T02:14:52.624Z,99207.81
2022-10-15T02:17:28.945Z,99208.69
2022-10-15T02:20:01.719Z,99210.34
2022-10-15T02:22:35.377Z,99212.97
2022-10-15T02:25:07.839Z,99215.69
2022-10-15T02:27:38.216Z,99202.63
2022-10-15T02:30:09.932Z,99191.38
2022-10-15T02:32:42.239Z,99198.34
2022-10-15T02:35:12.118Z,99205.22
2022-10-15T02:37:48.374Z,99203.38
2022-10-15T02:40:20.639Z,99211.16
2022-10-15T02:42:50.036Z,99221.56
2022-10-15T02:45:17.609Z,99212.88
2022-10-15T02:47:46.853Z,99225.84
2022-10-15T02:50:14.571Z,99206.69
2022-10-15T02:52:42.133Z,99215.34
2022-10-15T02:55:10.601Z,99218.00
2022-10-15T02:57:38.221Z,99220.63
2022-10-15T03:00:08.097Z,99216.31
2022-10-15T03:02:36.084Z,99215.47
2022-10-15T03:05:05.827Z,99218.88
2022-10-15T03:07:33.610Z,99218.88
2022-10-15T03:10:01.150Z,99221.50
2022-10-15T03:12:29.110Z,99224.09
2022-10-15T03:14:57.180Z,99218.94
2022-10-15T03:17:25.804Z,99235.38
2022-10-15T03:19:53.673Z,99224.09
2022-10-15T03:22:24.001Z,99225.84
2022-10-15T03:24:54.021Z,99224.97
2022-10-15T03:27:27.575Z,99231.06
2022-10-15T03:29:55.172Z,99237.91
2022-10-15T03:32:25.037Z,99225.88
2022-10-15T03:34:53.105Z,99231.06
2022-10-15T03:37:21.853Z,99233.69
2022-10-15T03:39:51.081Z,99238.81
2022-10-15T03:42:19.575Z,99239.53
2022-10-15T03:44:47.787Z,99255.09
2022-10-15T03:47:19.053Z,99249.88
2022-10-15T03:49:48.677Z,99244.72
2022-10-15T03:52:16.573Z,99256.91
2022-10-15T03:54:46.165Z,99248.22
2022-10-15T03:57:17.784Z,99247.38
2022-10-15T03:59:53.996Z,99259.47
2022-10-15T04:02:24.705Z,99248.28
2022-10-15T04:04:53.782Z,99258.66
2022-10-15T04:07:21.742Z,99265.56
2022-10-15T04:09:49.523Z,99252.59
2022-10-15T04:12:25.520Z,99262.16
2022-10-15T04:14:53.367Z,99257.00
2022-10-15T04:17:20.948Z,99271.72
2022-10-15T04:19:49.215Z,99265.63
2022-10-15T04:22:16.883Z,99283.81
2022-10-15T04:24:49.608Z,99277.72
2022-10-15T04:27:27.995Z,99281.22
2022-10-15T04:30:06.039Z,99287.25
2022-10-15T04:32:33.900Z,99286.44
2022-10-15T04:35:01.609Z,99300.31
2022-10-15T04:37:48.072Z,99289.91
2022-10-15T04:40:16.989Z,99309.00
2022-10-15T04:42:45.916Z,99312.47
2022-10-15T04:45:13.771Z,99304.66
2022-10-15T04:47:41.396Z,99303.78
2022-10-15T04:50:12.728Z,99310.72
2022-10-15T04:53:00.412Z,99315.91
2022-10-15T04:55:31.100Z,99315.91
2022-10-15T04:58:02.140Z,99328.94
2022-10-15T05:00:31.135Z,99318.59
2022-10-15T05:03:37.445Z,99308.19
2022-10-15T05:06:10.066Z,99323.81
2022-10-15T05:08:41.802Z,99320.38
2022-10-15T05:11:28.333Z,99321.25
2022-10-15T05:13:59.852Z,99324.72
2022-10-15T05:16:29.879Z,99326.44
2022-10-15T05:19:01.980Z,99333.38
2022-10-15T05:21:31.572Z,99331.69
2022-10-15T05:24:02.323Z,99333.44
2022-10-15T05:26:55.051Z,99346.44
2022-10-15T05:29:25.344Z,99340.38
2022-10-15T05:31:53.340Z,99349.06
2022-10-15T05:34:28.501Z,99343.91
2022-10-15T05:37:00.917Z,99344.75
2022-10-15T05:39:28.488Z,99355.09
2022-10-15T05:41:56.300Z,99358.53
2022-10-15T05:44:34.379Z,99362.91
2022-10-15T05:47:01.982Z,99355.09
2022-10-15T05:49:29.538Z,99371.59
2022-10-15T05:52:05.070Z,99375.06
2022-10-15T05:54:58.553Z,99367.28
2022-10-15T05:57:26.081Z,99366.47
2022-10-15T05:59:54.967Z,99372.50
2022-10-15T06:02:23.164Z,99376.81
2022-10-15T06:04:53.258Z,99387.19
2022-10-15T06:07:21.344Z,99376.78
2022-10-15T06:09:48.996Z,99371.59
2022-10-15T06:12:18.089Z,99375.94
2022-10-15T06:14:45.625Z,99391.47
2022-10-15T06:17:14.457Z,99386.31
2022-10-15T06:19:42.979Z,99401.03
2022-10-15T06:22:10.704Z,99414.00
2022-10-15T06:24:38.247Z,99398.38
2022-10-15T06:27:09.837Z,99404.47
2022-10-15T06:29:37.357Z,99401.84
2022-10-15T06:32:05.400Z,99416.53
2022-10-15T06:34:34.223Z,99412.13
2022-10-15T06:37:01.789Z,99424.22
2022-10-15T06:39:29.348Z,99425.06
2022-10-15T06:41:56.986Z,99425.94
2022-10-15T06:44:30.900Z,99418.19
2022-10-15T06:46:58.898Z,99423.31
2022-10-15T06:49:26.486Z,99428.50
2022-10-15T06:51:58.387Z,99430.22
2022-10-15T06:54:28.468Z,99429.28
2022-10-15T06:56:56.042Z,99425.81
2022-10-15T06:59:23.568Z,99437.91
2022-10-15T07:01:51.161Z,99435.28
2022-10-15T07:04:18.725Z,99436.97
2022-10-15T07:06:46.476Z,99443.88
2022-10-15T07:09:19.330Z,99439.50
2022-10-15T07:11:46.841Z,99441.13
2022-10-15T07:14:14.376Z,99447.09
2022-10-15T07:16:41.924Z,99441.97
2022-10-15T07:19:09.453Z,99441.94
2022-10-15T07:21:37.046Z,99435.88
2022-10-15T07:24:04.983Z,99438.38
2022-10-15T07:26:35.548Z,99438.34
2022-10-15T07:29:03.769Z,99444.50
2022-10-15T07:31:31.487Z,99447.09
2022-10-15T07:33:59.116Z,99447.06
2022-10-15T07:36:27.472Z,99449.66
2022-10-15T07:38:55.057Z,99463.56
2022-10-15T07:41:23.242Z,99461.06
2022-10-15T07:43:54.091Z,99460.13
2022-10-15T07:46:21.631Z,99462.81
2022-10-15T07:48:55.929Z,99471.47
2022-10-15T07:51:23.560Z,99476.69
2022-10-15T07:53:51.173Z,99471.44
2022-10-15T07:56:19.176Z,99463.56
2022-10-15T07:58:51.905Z,99467.88
2022-10-15T08:01:21.993Z,99470.38
2022-10-15T08:03:49.636Z,99470.19
2022-10-15T08:06:17.271Z,99467.66
2022-10-15T08:08:44.959Z,99471.91
2022-10-15T08:11:14.206Z,99480.59
2022-10-15T08:13:42.955Z,99479.69
2022-10-15T08:16:11.853Z,99485.66
2022-10-15T08:18:41.365Z,99481.25
2022-10-15T08:21:09.545Z,99485.56
2022-10-15T08:23:37.440Z,99489.94
2022-10-15T08:26:05.889Z,99481.25
2022-10-15T08:28:35.003Z,99482.22
2022-10-15T08:31:05.551Z,99483.91
2022-10-15T08:33:35.018Z,99496.06
2022-10-15T08:36:06.194Z,99488.41
2022-10-15T08:38:34.205Z,99490.19
2022-10-15T08:41:04.173Z,99491.09
2022-10-15T08:43:36.272Z,99493.78
2022-10-15T08:46:10.807Z,99480.81
2022-10-15T08:48:43.636Z,99492.13
2022-10-15T08:51:15.881Z,99486.06
2022-10-15T08:53:47.287Z,99493.94
2022-10-15T08:56:18.854Z,99495.66
2022-10-15T08:58:54.589Z,99499.94
2022-10-15T09:01:27.582Z,99503.31
2022-10-15T09:04:07.814Z,99495.47
2022-10-15T09:06:38.815Z,99502.34
2022-10-15T09:09:12.995Z,99504.00
2022-10-15T09:11:52.205Z,99510.03
2022-10-15T09:14:25.537Z,99500.53
2022-10-15T09:16:52.948Z,99509.22
2022-10-15T09:19:22.569Z,99506.53
2022-10-15T09:21:52.892Z,99519.47
2022-10-15T09:24:24.510Z,99517.75
2022-10-15T09:27:06.703Z,99521.06
2022-10-15T09:29:41.492Z,99513.94
2022-10-15T09:32:17.626Z,99517.22
2022-10-15T09:34:49.597Z,99510.81
2022-10-15T09:37:25.093Z,99501.03
2022-10-15T09:40:14.602Z,99506.81
2022-10-15T09:42:43.685Z,99503.44
2022-10-15T09:45:16.805Z,99508.66
2022-10-15T09:47:45.289Z,99515.44
2022-10-15T09:50:15.127Z,99516.34
2022-10-15T09:53:01.148Z,99524.81
2022-10-15T09:55:42.709Z,99532.78
2022-10-15T09:58:15.595Z,99535.50
2022-10-15T10:00:59.532Z,99547.94
2022-10-15T10:03:37.237Z,99540.06
2022-10-15T10:06:08.100Z,99548.97
2022-10-15T10:11:20.782Z,99549.44
2022-10-15T10:13:52.669Z,99552.28
2022-10-15T10:16:21.999Z,99550.41
2022-10-15T10:19:06.856Z,99555.63
2022-10-15T10:21:36.152Z,99546.81
2022-10-15T10:24:23.331Z,99547.66
2022-10-15T10:26:51.122Z,99546.66
2022-10-15T10:29:33.477Z,99544.75
2022-10-15T10:32:11.964Z,99545.47
2022-10-15T10:34:39.852Z,99534.66
2022-10-15T10:37:10.047Z,99540.38
2022-10-15T10:39:39.132Z,99539.09
2022-10-15T10:42:08.888Z,99540.53
2022-10-15T10:44:38.710Z,99542.81
2022-10-15T10:47:15.232Z,99534.56
2022-10-15T10:49:45.173Z,99541.19
2022-10-15T10:52:27.270Z,99545.41
2022-10-15T10:55:01.180Z,99531.06
2022-10-15T10:57:39.690Z,99528.97
2022-10-15T11:00:09.651Z,99534.84
2022-10-15T11:02:43.723Z,99523.75
2022-10-15T11:05:12.024Z,99528.22
2022-10-15T11:07:47.684Z,99532.34
2022-10-15T11:10:22.297Z,99524.22
2022-10-15T11:13:03.731Z,99529.38
2022-10-15T11:15:50.761Z,99531.19
2022-10-15T11:18:32.680Z,99534.84
2022-10-15T11:21:11.552Z,99513.94
2022-10-15T11:23:54.047Z,99527.00
2022-10-15T11:26:51.995Z,99528.16
2022-10-15T11:29:39.701Z,99517.72
2022-10-15T11:32:23.295Z,99523.16
2022-10-15T11:35:12.293Z,99511.00
2022-10-15T11:37:52.064Z,99510.34
2022-10-15T11:40:25.823Z,99512.84
2022-10-15T11:42:59.464Z,99517.00
2022-10-15T11:45:49.539Z,99508.44
2022-10-15T11:48:26.933Z,99501.38
2022-10-15T11:50:58.489Z,99510.84
2022-10-15T11:53:44.589Z,99512.38
2022-10-15T11:56:14.823Z,99513.59
2022-10-15T11:58:48.751Z,99504.09
2022-10-15T12:01:21.113Z,99512.69
2022-10-15T12:03:55.021Z,99506.53
2022-10-15T12:06:26.405Z,99521.34
2022-10-15T12:08:56.119Z,99509.47
2022-10-15T12:11:32.663Z,99503.31
2022-10-15T12:14:08.191Z,99498.16
2022-10-15T12:16:45.132Z,99494.69
2022-10-15T12:19:18.229Z,99495.41
2022-10-15T12:22:13.712Z,99497.81
2022-10-15T12:24:53.405Z,99497.81
2022-10-15T12:27:29.581Z,99493.88
2022-10-15T12:30:32.209Z,99484.91
2022-10-15T12:32:59.831Z,99492.66
2022-10-15T12:35:36.137Z,99501.56
2022-10-15T12:38:13.196Z,99503.41
2022-10-15T12:40:41.579Z,99499.06
2022-10-15T12:43:15.137Z,99510.53
2022-10-15T12:45:54.933Z,99515.00
2022-10-15T12:48:31.692Z,99491.03
2022-10-15T12:51:38.168Z,99505.75
2022-10-15T12:54:37.531Z,99507.63
2022-10-15T12:57:43.428Z,99500.38
2022-10-15T13:00:41.171Z,99503.03
2022-10-15T13:03:35.318Z,99499.56
2022-10-15T13:06:23.475Z,99512.69
2022-10-15T13:08:54.340Z,99508.38
2022-10-15T13:11:25.323Z,99502.53
2022-10-15T13:13:58.327Z,99496.31
2022-10-15T13:16:25.995Z,99493.53
2022-10-15T13:18:57.152Z,99496.97
2022-10-15T13:21:49.428Z,99492.34
2022-10-15T13:24:20.600Z,99498.78
2022-10-15T13:26:48.257Z,99490.34
2022-10-15T13:29:19.879Z,99487.59
2022-10-15T13:31:48.147Z,99491.06
2022-10-15T13:34:25.644Z,99499.75
2022-10-15T13:36:54.906Z,99505.91
2022-10-15T13:39:28.245Z,99502.59
2022-10-15T13:42:07.721Z,99509.38
2022-10-15T13:44:35.899Z,99506.16
2022-10-15T13:47:04.157Z,99500.94
2022-10-15T13:49:33.116Z,99511.47
2022-10-15T13:52:00.666Z,99499.47
2022-10-15T13:54:31.731Z,99498.56
2022-10-15T13:57:01.932Z,99494.41
2022-10-15T13:59:31.690Z,99488.94
2022-10-15T14:02:01.616Z,99501.81
2022-10-15T14:04:30.889Z,99492.16
2022-10-15T14:07:03.048Z,99498.88
2022-10-15T14:09:34.262Z,99487.50
2022-10-15T14:12:03.588Z,99491.78
2022-10-15T14:14:35.059Z,99486.47
2022-10-15T14:17:05.342Z,99484.97
2022-10-15T14:19:34.780Z,99485.13
2022-10-15T14:22:04.361Z,99473.63
2022-10-15T14:24:34.753Z,99473.63
2022-10-15T14:27:06.231Z,99472.16
2022-10-15T14:29:39.738Z,99472.09
2022-10-15T14:32:26.155Z,99477.31
2022-10-15T14:34:55.198Z,99473.75
2022-10-15T14:37:41.189Z,99486.06
2022-10-15T14:40:19.557Z,99482.56
2022-10-15T14:42:49.569Z,99484.22
2022-10-15T14:45:26.931Z,99474.56
2022-10-15T14:47:56.968Z,99483.13
2022-10-15T14:50:26.729Z,99482.16
2022-10-15T14:52:56.228Z,99479.41
2022-10-15T14:55:33.018Z,99486.31
2022-10-15T14:58:02.868Z,99484.56
2022-10-15T15:00:33.977Z,99484.59
2022-10-15T15:03:05.347Z,99486.41
2022-10-15T15:05:45.523Z,99486.47
2022-10-15T15:08:14.585Z,99481.31
2022-10-15T15:10:42.909Z,99484.03
2022-10-15T15:13:13.291Z,99485.84
2022-10-15T15:15:41.467Z,99485.13
2022-10-15T15:18:10.930Z,99486.72
2022-10-15T15:20:38.804Z,99483.34
2022-10-15T15:23:06.735Z,99486.25
2022-10-15T15:25:37.018Z,99486.16
2022-10-15T15:28:05.330Z,99491.50
2022-10-15T15:30:35.287Z,99488.94
2022-10-15T15:33:02.891Z,99484.66
2022-10-15T15:35:36.120Z,99494.19
2022-10-15T15:38:03.811Z,99490.81
2022-10-15T15:40:31.900Z,99490.75
2022-10-15T15:43:00.801Z,99490.75
2022-10-15T15:45:29.564Z,99491.59
2022-10-15T15:47:58.577Z,99494.22
2022-10-15T15:50:26.259Z,99497.72
2022-10-15T15:52:53.745Z,99511.75
2022-10-15T15:55:21.411Z,99510.03
2022-10-15T15:57:48.927Z,99516.94
2022-10-15T16:00:18.156Z,99507.44
2022-10-15T16:02:45.744Z,99504.84
2022-10-15T16:05:15.873Z,99504.94
2022-10-15T16:07:43.587Z,99518.81
2022-10-15T16:10:12.516Z,99523.22
2022-10-15T16:12:40.289Z,99524.06
2022-10-15T16:15:13.413Z,99525.78
2022-10-15T16:17:44.077Z,99530.28
2022-10-15T16:20:12.635Z,99529.56
2022-10-15T16:22:40.389Z,99532.16
2022-10-15T16:25:09.267Z,99537.38
2022-10-15T16:27:36.915Z,99533.94
2022-10-15T16:30:05.126Z,99536.66
2022-10-15T16:32:32.634Z,99538.44
2022-10-15T16:35:01.820Z,99538.50
2022-10-15T16:37:29.363Z,99553.31
2022-10-15T16:39:56.981Z,99561.16
2022-10-15T16:42:24.497Z,99558.56
2022-10-15T16:44:52.666Z,99564.69
2022-10-15T16:47:21.272Z,99563.81
2022-10-15T16:49:48.815Z,99570.75
2022-10-15T16:52:17.795Z,99576.78
2022-10-15T16:54:45.296Z,99572.44
2022-10-15T16:57:12.874Z,99569.88
2022-10-15T16:59:40.516Z,99568.16
2022-10-15T17:02:08.165Z,99567.34
2022-10-15T17:04:35.769Z,99561.25
2022-10-15T17:07:03.657Z,99575.19
2022-10-15T17:09:32.568Z,99573.50
2022-10-15T17:12:00.240Z,99576.13
2022-10-15T17:14:27.865Z,99589.16
2022-10-15T17:16:55.402Z,99589.19
2022-10-15T17:19:28.964Z,99589.19
2022-10-15T17:21:59.552Z,99590.97
2022-10-15T17:24:27.158Z,99585.81
2022-10-15T17:26:57.818Z,99596.22
2022-10-15T17:29:29.054Z,99596.22
2022-10-15T17:32:01.168Z,99585.88
2022-10-15T17:34:28.781Z,99591.91
2022-10-15T17:36:56.789Z,99596.28
2022-10-15T17:39:24.745Z,99593.69
2022-10-15T17:41:52.623Z,99590.22
2022-10-15T17:44:21.666Z,99587.66
2022-10-15T17:46:50.014Z,99590.22
2022-10-15T17:49:19.208Z,99598.06
2022-10-15T17:51:47.989Z,99592.00
2022-10-15T17:54:15.697Z,99592.88
2022-10-15T17:56:43.596Z,99597.19
2022-10-15T17:59:13.329Z,99598.09
2022-10-15T18:02:00.770Z,99598.94
2022-10-15T18:04:33.107Z,99600.69
2022-10-15T18:07:00.622Z,99609.38
2022-10-15T18:09:28.945Z,99614.59
2022-10-15T18:12:00.304Z,99608.50
2022-10-15T18:14:34.804Z,99612.00
2022-10-15T18:17:04.294Z,99612.91
2022-10-15T18:19:31.978Z,99605.09
2022-10-15T18:21:59.563Z,99607.72
2022-10-15T18:24:27.209Z,99604.28
2022-10-15T18:26:54.811Z,99607.75
2022-10-15T18:29:25.044Z,99617.25
2022-10-15T18:31:57.378Z,99620.75
2022-10-15T18:34:28.691Z,99624.19
2022-10-15T18:36:56.339Z,99626.78
2022-10-15T18:39:24.468Z,99627.66
2022-10-15T18:41:52.061Z,99625.06
2022-10-15T18:44:21.434Z,99622.47
2022-10-15T18:46:49.168Z,99621.63
2022-10-15T18:49:18.580Z,99620.75
2022-10-15T18:51:51.427Z,99631.16
2022-10-15T18:54:19.093Z,99629.41
2022-10-15T18:56:46.719Z,99632.91
2022-10-15T18:59:16.023Z,99637.19
2022-10-15T19:01:44.189Z,99630.31
2022-10-15T19:04:13.695Z,99625.94
2022-10-15T19:06:43.507Z,99623.38
2022-10-15T19:09:14.067Z,99631.16
2022-10-15T19:11:42.908Z,99628.59
2022-10-15T19:14:10.624Z,99639.84
2022-10-15T19:16:38.404Z,99642.47
2022-10-15T19:19:15.496Z,99636.38
2022-10-15T19:21:43.180Z,99647.66
2022-10-15T19:24:12.216Z,99644.19
2022-10-15T19:26:39.904Z,99647.63
2022-10-15T19:29:07.520Z,99638.97
2022-10-15T19:31:37.229Z,99640.72
2022-10-15T19:34:05.224Z,99643.38
2022-10-15T19:36:36.291Z,99641.63
2022-10-15T19:39:07.938Z,99647.69
2022-10-15T19:41:38.161Z,99649.41
2022-10-15T19:44:07.761Z,99646.84
2022-10-15T19:46:35.540Z,99652.03
2022-10-15T19:49:03.060Z,99649.41
2022-10-15T19:51:31.495Z,99656.38
2022-10-15T19:54:00.008Z,99660.72
2022-10-15T19:56:30.852Z,99668.50
2022-10-15T19:59:02.064Z,99671.13
2022-10-15T20:01:30.640Z,99687.56
2022-10-15T20:04:03.153Z,99684.09
2022-10-15T20:06:34.434Z,99685.81
2022-10-15T20:09:02.074Z,99687.53
2022-10-15T20:11:29.615Z,99684.06
2022-10-15T20:13:57.473Z,99695.34
2022-10-15T20:16:28.712Z,99690.13
2022-10-15T20:18:59.161Z,99694.44
2022-10-15T20:21:26.824Z,99689.22
2022-10-15T20:23:54.458Z,99687.50
2022-10-15T20:26:22.673Z,99682.31
2022-10-15T20:28:50.521Z,99694.44
2022-10-15T20:31:20.501Z,99691.84
2022-10-15T20:33:50.945Z,99679.75
2022-10-15T20:36:23.521Z,99679.75
2022-10-15T20:38:51.799Z,99682.38
2022-10-15T20:41:19.849Z,99684.97
2022-10-15T20:43:52.732Z,99685.00
2022-10-15T20:46:24.615Z,99693.63
2022-10-15T20:48:54.964Z,99696.25
2022-10-15T20:51:25.985Z,99698.84
2022-10-15T20:53:56.661Z,99695.38
2022-10-15T20:56:24.602Z,99705.78
2022-10-15T20:58:52.157Z,99705.75
2022-10-15T21:01:20.655Z,99695.38
2022-10-15T21:03:48.256Z,99707.50
2022-10-15T21:06:17.638Z,99709.22
2022-10-15T21:08:45.171Z,99708.38
2022-10-15T21:11:12.703Z,99704.91
2022-10-15T21:13:40.290Z,99708.38
2022-10-15T21:16:08.805Z,99714.44
2022-10-15T21:18:37.260Z,99722.22
2022-10-15T21:21:05.952Z,99723.09
2022-10-15T21:23:35.527Z,99715.31
2022-10-15T21:26:06.765Z,99709.22
2022-10-15T21:28:35.110Z,99716.19
2022-10-15T21:31:06.083Z,99709.25
2022-10-15T21:33:33.838Z,99721.38
2022-10-15T21:36:10.423Z,99727.41
2022-10-15T21:38:39.323Z,99726.56
2022-10-15T21:41:07.116Z,99739.53
2022-10-15T21:43:34.733Z,99739.53
2022-10-15T21:46:07.415Z,99740.41
2022-10-15T21:48:36.459Z,99747.31
2022-10-15T21:51:04.219Z,99738.69
2022-10-15T21:53:31.750Z,99741.28
2022-10-15T21:56:00.683Z,99742.13
2022-10-15T21:58:28.171Z,99747.31
2022-10-15T22:00:55.708Z,99754.25
2022-10-15T22:03:23.404Z,99750.78
2022-10-15T22:05:51.144Z,99749.94
2022-10-15T22:08:18.648Z,99750.78
2022-10-15T22:10:46.245Z,99748.19
2022-10-15T22:13:15.081Z,99748.16
2022-10-15T22:15:42.579Z,99750.75
2022-10-15T22:18:10.079Z,99759.41
2022-10-15T22:20:37.677Z,99754.22
2022-10-15T22:23:05.247Z,99752.47
2022-10-15T22:25:32.748Z,99755.03
2022-10-15T22:28:00.275Z,99753.31
2022-10-15T22:30:29.113Z,99755.06
2022-10-15T22:32:56.604Z,99753.31
2022-10-15T22:35:24.102Z,99741.22
2022-10-15T22:37:52.772Z,99749.91
2022-10-15T22:40:20.319Z,99749.03
2022-10-15T22:42:48.413Z,99751.63
2022-10-15T22:45:16.220Z,99759.44
2022-10-15T22:47:45.051Z,99757.72
2022-10-15T22:50:12.554Z,99745.59
2022-10-15T22:52:40.042Z,99746.47
2022-10-15T22:55:07.978Z,99752.53
2022-10-15T22:57:35.488Z,99748.19
2022-10-15T23:00:02.999Z,99741.28
2022-10-15T23:02:30.557Z,99744.75
2022-10-15T23:04:59.397Z,99743.91
2022-10-15T23:07:26.958Z,99740.41
2022-10-15T23:09:54.423Z,99735.25
2022-10-15T23:12:22.410Z,99731.78
2022-10-15T23:14:49.916Z,99727.47
2022-10-15T23:17:17.514Z,99743.03
2022-10-15T23:19:45.059Z,99749.13
2022-10-15T23:22:13.876Z,99757.75
2022-10-15T23:24:41.387Z,99768.13
2022-10-15T23:27:09.920Z,99765.56
2022-10-15T23:29:37.586Z,99760.34
2022-10-15T23:32:05.270Z,99749.97
2022-10-15T23:34:32.821Z,99757.75
2022-10-15T23:37:00.312Z,99753.44
2022-10-15T23:39:29.132Z,99751.69
2022-10-15T23:41:56.679Z,99756.03
2022-10-15T23:44:26.573Z,99768.16
2022-10-15T23:46:54.222Z,99775.94
2022-10-15T23:49:21.756Z,99765.53
2022-10-15T23:51:49.398Z,99758.63
2022-10-15T23:54:19.441Z,99761.22
2022-10-15T23:56:49.397Z,99757.75
2022-10-15T23:59:18.146Z,99749.97
